Observation data for McLean on 07/11/2018      Previous  Date       Current Mesonet Observations  Soil Data  Daily Summary Page  Observations in Plain Language
KMCS 110505Z 15006KT 22/17 A3013 RMK A01 T02230166  RH  073%=      5-min Rain = 0
KMCS 110510Z 13005KT 22/17 A3013 RMK A01 T02230166  RH  074%=      5-min Rain = 0
KMCS 110515Z 12005KT 22/17 A3013 RMK A01 T02210166  RH  075%=      5-min Rain = 0
KMCS 110520Z 12004KT 22/17 A3013 RMK A01 T02200166  RH  075%=      5-min Rain = 0
KMCS 110525Z 11004KT 22/17 A3013 RMK A01 T02190166  RH  076%=      5-min Rain = 0
KMCS 110530Z 10005KT 22/17 A3013 RMK A01 T02170166  RH  077%=      5-min Rain = 0
KMCS 110535Z 10005KT 22/17 A3013 RMK A01 T02150167  RH  078%=      5-min Rain = 0
KMCS 110540Z 12004KT 21/17 A3013 RMK A01 T02140167  RH  078%=      5-min Rain = 0
KMCS 110545Z 11005KT 22/17 A3013 RMK A01 T02150166  RH  078%=      5-min Rain = 0
KMCS 110550Z 11006KT 21/17 A3013 RMK A01 T02140167  RH  078%=      5-min Rain = 0
KMCS 110555Z 11006KT 22/17 A3013 RMK A01 T02150167  RH  078%=      5-min Rain = 0
KMCS 110600Z 12006KT 22/17 A3013 RMK A01 T02160168  RH  078%=      5-min Rain = 0
KMCS 110605Z 12007KT 22/17 A3013 RMK A01 T02170168  RH  078%=      5-min Rain = 0
KMCS 110610Z 12006KT 22/17 A3013 RMK A01 T02170169  RH  078%=      5-min Rain = 0
KMCS 110615Z 13006KT 22/17 A3013 RMK A01 T02160169  RH  078%=      5-min Rain = 0
KMCS 110620Z 12006KT 22/17 A3013 RMK A01 T02160169  RH  078%=      5-min Rain = 0
KMCS 110625Z 13006KT 22/17 A3013 RMK A01 T02150169  RH  078%=      5-min Rain = 0
KMCS 110630Z 14006KT 22/17 A3013 RMK A01 T02150169  RH  079%=      5-min Rain = 0
KMCS 110635Z 14006KT 22/17 A3012 RMK A01 T02150170  RH  079%=      5-min Rain = 0
KMCS 110640Z 14005KT 22/17 A3012 RMK A01 T02150170  RH  079%=      5-min Rain = 0
KMCS 110645Z 14004KT 22/17 A3013 RMK A01 T02150171  RH  080%=      5-min Rain = 0
KMCS 110650Z 13004KT 21/17 A3012 RMK A01 T02140171  RH  080%=      5-min Rain = 0
KMCS 110655Z 15003KT 21/17 A3012 RMK A01 T02140171  RH  081%=      5-min Rain = 0
KMCS 110700Z 16003KT 21/17 A3012 RMK A01 T02140171  RH  081%=      5-min Rain = 0
KMCS 110705Z 18002KT 21/17 A3012 RMK A01 T02140171  RH  081%=      5-min Rain = 0
KMCS 110710Z 20002KT 21/17 A3012 RMK A01 T02130171  RH  081%=      5-min Rain = 0
KMCS 110715Z 19003KT 21/17 A3012 RMK A01 T02120171  RH  081%=      5-min Rain = 0
KMCS 110720Z 19003KT 21/17 A3012 RMK A01 T02140172  RH  081%=      5-min Rain = 0
KMCS 110725Z 19003KT 22/17 A3012 RMK A01 T02150172  RH  080%=      5-min Rain = 0
KMCS 110730Z 18004KT 22/17 A3012 RMK A01 T02160171  RH  080%=      5-min Rain = 0
KMCS 110735Z 19003KT 22/17 A3012 RMK A01 T02160171  RH  080%=      5-min Rain = 0
KMCS 110740Z 19003KT 22/17 A3011 RMK A01 T02170171  RH  079%=      5-min Rain = 0
KMCS 110745Z 20003KT 22/17 A3011 RMK A01 T02170172  RH  079%=      5-min Rain = 0
KMCS 110750Z 19003KT 22/17 A3011 RMK A01 T02180171  RH  079%=      5-min Rain = 0
KMCS 110755Z 19004KT 22/17 A3011 RMK A01 T02160171  RH  079%=      5-min Rain = 0
KMCS 110800Z 20004KT 22/17 A3011 RMK A01 T02170172  RH  079%=      5-min Rain = 0
KMCS 110805Z 20004KT 22/17 A3011 RMK A01 T02180172  RH  079%=      5-min Rain = 0
KMCS 110810Z 20005KT 22/17 A3011 RMK A01 T02180172  RH  079%=      5-min Rain = 0
KMCS 110815Z 22005KT 22/17 A301 RMK A01 T02180171  RH  079%=      5-min Rain = 0
KMCS 110820Z 22006KT 22/17 A301 RMK A01 T02160171  RH  079%=      5-min Rain = 0
KMCS 110825Z 22006KT 22/17 A301 RMK A01 T02170171  RH  079%=      5-min Rain = 0
KMCS 110830Z 22006KT 22/17 A301 RMK A01 T02170171  RH  079%=      5-min Rain = 0
KMCS 110835Z 21006KT 22/17 A301 RMK A01 T02170171  RH  079%=      5-min Rain = 0
KMCS 110840Z 21005KT 22/17 A301 RMK A01 T02170171  RH  079%=      5-min Rain = 0
KMCS 110845Z 20005KT 22/17 A301 RMK A01 T02170172  RH  079%=      5-min Rain = 0
KMCS 110850Z 20005KT 22/17 A301 RMK A01 T02160171  RH  079%=      5-min Rain = 0
KMCS 110855Z 18004KT 21/17 A301 RMK A01 T02140171  RH  081%=      5-min Rain = 0
KMCS 110900Z 15004KT 21/17 A301 RMK A01 T02110171  RH  082%=      5-min Rain = 0
KMCS 110905Z 16004KT 21/17 A301 RMK A01 T02100171  RH  082%=      5-min Rain = 0
KMCS 110910Z 16004KT 21/17 A301 RMK A01 T02090171  RH  083%=      5-min Rain = 0
KMCS 110915Z 18005KT 21/17 A301 RMK A01 T02090171  RH  083%=      5-min Rain = 0
KMCS 110920Z 18004KT 21/17 A301 RMK A01 T02080171  RH  083%=      5-min Rain = 0
KMCS 110925Z 17004KT 21/17 A301 RMK A01 T02070171  RH  083%=      5-min Rain = 0
KMCS 110930Z 17004KT 21/17 A301 RMK A01 T02070171  RH  084%=      5-min Rain = 0
KMCS 110935Z 17004KT 21/17 A301 RMK A01 T02080171  RH  084%=      5-min Rain = 0
KMCS 110940Z 18003KT 21/17 A301 RMK A01 T02080171  RH  083%=      5-min Rain = 0
KMCS 110945Z 19004KT 21/17 A301 RMK A01 T02080171  RH  083%=      5-min Rain = 0
KMCS 110950Z 19004KT 21/17 A301 RMK A01 T02090172  RH  083%=      5-min Rain = 0
KMCS 110955Z 19005KT 21/17 A301 RMK A01 T02090171  RH  083%=      5-min Rain = 0
KMCS 111000Z 20005KT 21/17 A301 RMK A01 T02090172  RH  083%=      5-min Rain = 0
KMCS 111005Z 20005KT 21/17 A3009 RMK A01 T02100172  RH  083%=      5-min Rain = 0
KMCS 111010Z 20005KT 21/17 A3009 RMK A01 T02110172  RH  083%=      5-min Rain = 0
KMCS 111015Z 21006KT 21/17 A3009 RMK A01 T02110172  RH  082%=      5-min Rain = 0
KMCS 111020Z 21006KT 21/17 A3009 RMK A01 T02110172  RH  082%=      5-min Rain = 0
KMCS 111025Z 20006KT 21/17 A3009 RMK A01 T02100172  RH  083%=      5-min Rain = 0
KMCS 111030Z 19006KT 21/17 A3009 RMK A01 T02080172  RH  084%=      5-min Rain = 0
KMCS 111035Z 19005KT 21/17 A301 RMK A01 T02070172  RH  084%=      5-min Rain = 0
KMCS 111040Z 20005KT 21/17 A301 RMK A01 T02080172  RH  084%=      5-min Rain = 0
KMCS 111045Z 20005KT 21/17 A301 RMK A01 T02090172  RH  083%=      5-min Rain = 0
KMCS 111050Z 20005KT 21/17 A3009 RMK A01 T02100172  RH  083%=      5-min Rain = 0
KMCS 111055Z 20005KT 21/17 A3009 RMK A01 T02100172  RH  083%=      5-min Rain = 0
KMCS 111100Z 21005KT 21/17 A3009 RMK A01 T02100172  RH  083%=      5-min Rain = 0
KMCS 111105Z 21005KT 21/17 A3009 RMK A01 T02090172  RH  084%=      5-min Rain = 0
KMCS 111110Z 20005KT 21/17 A3009 RMK A01 T02100172  RH  083%=      5-min Rain = 0
KMCS 111115Z 20005KT 21/17 A3009 RMK A01 T02100172  RH  083%=      5-min Rain = 0
KMCS 111120Z 20005KT 21/17 A3009 RMK A01 T02090172  RH  083%=      5-min Rain = 0
KMCS 111125Z 20005KT 21/17 A3009 RMK A01 T02090172  RH  084%=      5-min Rain = 0
KMCS 111130Z 20005KT 21/17 A301 RMK A01 T02090172  RH  084%=      5-min Rain = 0
KMCS 111135Z 19004KT 21/17 A301 RMK A01 T02070172  RH  084%=      5-min Rain = 0
KMCS 111140Z 18004KT 21/17 A301 RMK A01 T02070172  RH  084%=      5-min Rain = 0
KMCS 111145Z 19004KT 21/17 A301 RMK A01 T02070172  RH  084%=      5-min Rain = 0
KMCS 111150Z 18003KT 21/17 A301 RMK A01 T02070172  RH  085%=      5-min Rain = 0
KMCS 111155Z 17003KT 21/17 A301 RMK A01 T02070172  RH  084%=      5-min Rain = 0
KMCS 111200Z 19002KT 21/17 A301 RMK A01 T02080173  RH  084%=      5-min Rain = 0
KMCS 111205Z 22002KT 21/17 A301 RMK A01 T02080172  RH  084%=      5-min Rain = 0
KMCS 111210Z 24002KT 21/17 A3011 RMK A01 T02070172  RH  084%=      5-min Rain = 0
KMCS 111215Z 23002KT 21/17 A3011 RMK A01 T02070172  RH  085%=      5-min Rain = 0
KMCS 111220Z 21003KT 21/17 A3011 RMK A01 T02090173  RH  084%=      5-min Rain = 0
KMCS 111225Z 20003KT 21/17 A3011 RMK A01 T02110173  RH  083%=      5-min Rain = 0
KMCS 111230Z 20003KT 21/17 A3011 RMK A01 T02110172  RH  082%=      5-min Rain = 0
KMCS 111235Z 19002KT 21/17 A3011 RMK A01 T02110172  RH  082%=      5-min Rain = 0
KMCS 111240Z 20002KT 21/17 A3011 RMK A01 T02120172  RH  082%=      5-min Rain = 0
KMCS 111245Z 20002KT 21/17 A3011 RMK A01 T02130172  RH  082%=      5-min Rain = 0
KMCS 111250Z 20002KT 21/17 A3011 RMK A01 T02130173  RH  082%=      5-min Rain = 0
KMCS 111255Z 19002KT 21/17 A3011 RMK A01 T02130173  RH  082%=      5-min Rain = 0
KMCS 111300Z 17002KT 21/17 A3011 RMK A01 T02140173  RH  081%=      5-min Rain = 0
KMCS 111305Z 14001KT 21/17 A3012 RMK A01 T02130172  RH  082%=      5-min Rain = 0
KMCS 111310Z 18002KT 21/17 A3012 RMK A01 T02140172  RH  081%=      5-min Rain = 0
KMCS 111315Z 20003KT 22/17 A3011 RMK A01 T02160172  RH  080%=      5-min Rain = 0
KMCS 111320Z 19003KT 22/17 A3011 RMK A01 T02190173  RH  079%=      5-min Rain = 0
KMCS 111325Z 16002KT 22/17 A3011 RMK A01 T02210174  RH  079%=      5-min Rain = 0
KMCS 111330Z 13003KT 22/18 A3012 RMK A01 T02230175  RH  078%=      5-min Rain = 0
KMCS 111335Z 11003KT 23/18 A3012 RMK A01 T02270177  RH  077%=      5-min Rain = 0
KMCS 111340Z 12004KT 23/18 A3012 RMK A01 T02260175  RH  077%=      5-min Rain = 0
KMCS 111345Z 14004KT 23/18 A3013 RMK A01 T02300178  RH  076%=      5-min Rain = 0
KMCS 111350Z 14005KT 23/18 A3013 RMK A01 T02330176  RH  074%=      5-min Rain = 0
KMCS 111355Z 13005KT 24/18 A3013 RMK A01 T02380178  RH  073%=      5-min Rain = 0
KMCS 111400Z 14006KT 24/18 A3013 RMK A01 T02410178  RH  072%=      5-min Rain = 0
KMCS 111405Z 14006KT 24/18 A3013 RMK A01 T02420179  RH  072%=      5-min Rain = 0
KMCS 111410Z 15006KT 25/18 A3013 RMK A01 T02460178  RH  070%=      5-min Rain = 0
KMCS 111415Z 13006KT 25/18 A3013 RMK A01 T02480179  RH  069%=      5-min Rain = 0
KMCS 111420Z 16006KT 25/18 A3013 RMK A01 T02500176  RH  067%=      5-min Rain = 0
KMCS 111425Z 17006KT 26/18 A3013 RMK A01 T02550176  RH  065%=      5-min Rain = 0
KMCS 111430Z 16007KT 26/18 A3013 RMK A01 T02580176  RH  063%=      5-min Rain = 0
KMCS 111435Z 17007KT 26/17 A3013 RMK A01 T02600172  RH  061%=      5-min Rain = 0
KMCS 111440Z 18007KT 26/17 A3013 RMK A01 T02640173  RH  060%=      5-min Rain = 0
KMCS 111445Z 17005KT 27/17 A3013 RMK A01 T02660171  RH  059%=      5-min Rain = 0
KMCS 111450Z 18006KT 27/17 A3013 RMK A01 T02680174  RH  060%=      5-min Rain = 0
KMCS 111455Z 18007KT 27/17 A3013 RMK A01 T02690172  RH  058%=      5-min Rain = 0
KMCS 111500Z 17007KT 27/17 A3013 RMK A01 T02700171  RH  058%=      5-min Rain = 0
KMCS 111505Z 17007KT 27/17 A3013 RMK A01 T02730170  RH  056%=      5-min Rain = 0
KMCS 111510Z 20007KT 28/17 A3013 RMK A01 T02760167  RH  054%=      5-min Rain = 0
KMCS 111515Z 18007KT 28/17 A3013 RMK A01 T02790166  RH  053%=      5-min Rain = 0
KMCS 111520Z 19007KT 28/17 A3013 RMK A01 T02790165  RH  052%=      5-min Rain = 0
KMCS 111525Z 19008G13KT 28/17 A3013 RMK A01 T02820166  RH  052%=      5-min Rain = 0
KMCS 111530Z 20007G12KT 28/17 A3012 RMK A01 T02790166  RH  053%=      5-min Rain = 0
KMCS 111535Z 19007KT 28/17 A3013 RMK A01 T02820167  RH  052%=      5-min Rain = 0
KMCS 111540Z 19007G12KT 28/16 A3013 RMK A01 T02840163  RH  050%=      5-min Rain = 0
KMCS 111545Z 20009KT 29/16 A3012 RMK A01 T02880159  RH  048%=      5-min Rain = 0
KMCS 111550Z 19009KT 28/16 A3012 RMK A01 T02840160  RH  049%=      5-min Rain = 0
KMCS 111555Z 21010G15KT 28/16 A3012 RMK A01 T02840160  RH  049%=      5-min Rain = 0
KMCS 111600Z 19009KT 29/16 A3012 RMK A01 T02850161  RH  049%=      5-min Rain = 0
KMCS 111605Z 19009KT 29/16 A3012 RMK A01 T02870163  RH  049%=      5-min Rain = 0
KMCS 111610Z 17009G14KT 29/16 A3012 RMK A01 T02870163  RH  049%=      5-min Rain = 0
KMCS 111615Z 18008G13KT 29/17 A3012 RMK A01 T02900165  RH  049%=      5-min Rain = 0
KMCS 111620Z 19008KT 29/16 A3012 RMK A01 T02910164  RH  049%=      5-min Rain = 0
KMCS 111625Z 20008KT 29/17 A3012 RMK A01 T02910166  RH  049%=      5-min Rain = 0
KMCS 111630Z 17009KT 29/16 A3012 RMK A01 T02910164  RH  049%=      5-min Rain = 0
KMCS 111635Z 17008KT 29/16 A3012 RMK A01 T02920163  RH  048%=      5-min Rain = 0
KMCS 111640Z 18009G14KT 30/16 A3012 RMK A01 T02950161  RH  046%=      5-min Rain = 0
KMCS 111645Z 18009G14KT 30/16 A3012 RMK A01 T02950162  RH  047%=      5-min Rain = 0
KMCS 111650Z 18009KT 30/16 A3012 RMK A01 T02960159  RH  046%=      5-min Rain = 0
KMCS 111655Z 18010KT 30/15 A3012 RMK A01 T03020154  RH  043%=      5-min Rain = 0
KMCS 111700Z 17008KT 30/15 A3012 RMK A01 T03040145  RH  040%=      5-min Rain = 0
KMCS 111705Z 20007G13KT 31/14 A3012 RMK A01 T03060142  RH  038%=      5-min Rain = 0
KMCS 111710Z 16008KT 31/14 A3012 RMK A01 T03110139  RH  037%=      5-min Rain = 0
KMCS 111715Z 16007KT 31/13 A3012 RMK A01 T03110132  RH  035%=      5-min Rain = 0
KMCS 111720Z 19005KT 31/14 A3012 RMK A01 T03120135  RH  035%=      5-min Rain = 0
KMCS 111725Z 19009G16KT 32/13 A3012 RMK A01 T03150130  RH  034%=      5-min Rain = 0
KMCS 111730Z 19009KT 32/12 A3011 RMK A01 T03160122  RH  032%=      5-min Rain = 0
KMCS 111735Z 18009G15KT 32/12 A3011 RMK A01 T03190115  RH  030%=      5-min Rain = 0
KMCS 111740Z 18009KT 32/12 A3011 RMK A01 T03170117  RH  030%=      5-min Rain = 0
KMCS 111745Z 18009KT 32/12 A3011 RMK A01 T03180119  RH  031%=      5-min Rain = 0
KMCS 111750Z 20009G14KT 32/13 A3011 RMK A01 T03170129  RH  033%=      5-min Rain = 0
KMCS 111755Z 20009G16KT 32/13 A3011 RMK A01 T03160125  RH  032%=      5-min Rain = 0
KMCS 111800Z 20010KT 32/12 A3011 RMK A01 T03220116  RH  029%=      5-min Rain = 0
KMCS 111805Z 19009G15KT 33/12 A3011 RMK A01 T03260118  RH  029%=      5-min Rain = 0
KMCS 111810Z 19010G15KT 33/12 A301 RMK A01 T03260118  RH  029%=      5-min Rain = 0
KMCS 111815Z 19010G16KT 33/12 A301 RMK A01 T03250117  RH  029%=      5-min Rain = 0
KMCS 111820Z 17009G17KT 32/11 A301 RMK A01 T03240111  RH  028%=      5-min Rain = 0
KMCS 111825Z 19010G17KT 33/11 A301 RMK A01 T03260114  RH  028%=      5-min Rain = 0
KMCS 111830Z 19011KT 33/12 A301 RMK A01 T03300119  RH  029%=      5-min Rain = 0
KMCS 111835Z 18009G14KT 32/12 A301 RMK A01 T03220119  RH  030%=      5-min Rain = 0
KMCS 111840Z 16010G15KT 32/12 A3009 RMK A01 T03220121  RH  030%=      5-min Rain = 0
KMCS 111845Z 16010KT 32/12 A3009 RMK A01 T03240121  RH  030%=      5-min Rain = 0
KMCS 111850Z 17011G17KT 33/12 A3009 RMK A01 T03280116  RH  028%=      5-min Rain = 0
KMCS 111855Z 18012G17KT 33/12 A3009 RMK A01 T03300121  RH  029%=      5-min Rain = 0
KMCS 111900Z 16009G15KT 33/12 A3008 RMK A01 T03260121  RH  030%=      5-min Rain = 0
KMCS 111905Z 15011G19KT 33/12 A3008 RMK A01 T03270122  RH  030%=      5-min Rain = 0
KMCS 111910Z 16011G16KT 33/12 A3008 RMK A01 T03300124  RH  030%=      5-min Rain = 0
KMCS 111915Z 18011G16KT 33/13 A3008 RMK A01 T03300126  RH  030%=      5-min Rain = 0
KMCS 111920Z 15010G15KT 33/13 A3008 RMK A01 T03300126  RH  030%=      5-min Rain = 0
KMCS 111925Z 17012G18KT 32/13 A3008 RMK A01 T03230126  RH  031%=      5-min Rain = 0
KMCS 111930Z 14012G18KT 32/13 A3008 RMK A01 T03230128  RH  032%=      5-min Rain = 0
KMCS 111935Z 16013G21KT 33/13 A3008 RMK A01 T03250126  RH  031%=      5-min Rain = 0
KMCS 111940Z 16009G15KT 33/13 A3007 RMK A01 T03260126  RH  031%=      5-min Rain = 0
KMCS 111945Z 15010G18KT 33/13 A3007 RMK A01 T03330128  RH  030%=      5-min Rain = 0
KMCS 111950Z 17009G14KT 34/13 A3007 RMK A01 T03350125  RH  029%=      5-min Rain = 0
KMCS 111955Z 17012G18KT 33/12 A3007 RMK A01 T03320123  RH  029%=      5-min Rain = 0
KMCS 112000Z 14014G21KT 33/12 A3006 RMK A01 T03310121  RH  029%=      5-min Rain = 0
KMCS 112005Z 17014G22KT 34/12 A3006 RMK A01 T03370116  RH  027%=      5-min Rain = 0
KMCS 112010Z 16014G21KT 34/12 A3006 RMK A01 T03380117  RH  027%=      5-min Rain = 0
KMCS 112015Z 16012G20KT 34/12 A3006 RMK A01 T03360118  RH  028%=      5-min Rain = 0
KMCS 112020Z 17013G19KT 33/12 A3006 RMK A01 T03310115  RH  028%=      5-min Rain = 0
KMCS 112025Z 16012G18KT 34/11 A3006 RMK A01 T03350114  RH  027%=      5-min Rain = 0
KMCS 112030Z 16013G20KT 33/12 A3005 RMK A01 T03340116  RH  027%=      5-min Rain = 0
KMCS 112035Z 18013G20KT 33/11 A3005 RMK A01 T03330114  RH  027%=      5-min Rain = 0
KMCS 112040Z 17014G20KT 33/12 A3005 RMK A01 T03340115  RH  027%=      5-min Rain = 0
KMCS 112045Z 16013G19KT 33/11 A3005 RMK A01 T03270113  RH  028%=      5-min Rain = 0
KMCS 112050Z 16013G23KT 32/11 A3005 RMK A01 T03230111  RH  028%=      5-min Rain = 0
KMCS 112055Z 17013G20KT 33/11 A3005 RMK A01 T03270109  RH  027%=      5-min Rain = 0
KMCS 112100Z 16012G19KT 33/11 A3004 RMK A01 T03320109  RH  026%=      5-min Rain = 0
KMCS 112105Z 18013G19KT 34/11 A3004 RMK A01 T03370107  RH  025%=      5-min Rain = 0
KMCS 112110Z 16010G20KT 34/11 A3004 RMK A01 T03390106  RH  025%=      5-min Rain = 0
KMCS 112115Z 15014G22KT 34/11 A3004 RMK A01 T03380108  RH  025%=      5-min Rain = 0
KMCS 112120Z 17012G20KT 34/11 A3003 RMK A01 T03420109  RH  025%=      5-min Rain = 0
KMCS 112125Z 16011G17KT 34/10 A3003 RMK A01 T03380103  RH  025%=      5-min Rain = 0
KMCS 112130Z 16012G18KT 34/11 A3003 RMK A01 T03370109  RH  026%=      5-min Rain = 0
KMCS 112135Z 15015KT 34/11 A3003 RMK A01 T03350107  RH  026%=      5-min Rain = 0
KMCS 112140Z 17011G17KT 34/11 A3002 RMK A01 T03370107  RH  025%=      5-min Rain = 0
KMCS 112145Z 17014G21KT 34/11 A3002 RMK A01 T03420108  RH  025%=      5-min Rain = 0
KMCS 112150Z 16015G20KT 34/11 A3002 RMK A01 T03390110  RH  026%=      5-min Rain = 0
KMCS 112155Z 16015G21KT 34/11 A3002 RMK A01 T03370109  RH  026%=      5-min Rain = 0
KMCS 112200Z 17013G18KT 34/11 A3002 RMK A01 T03360107  RH  026%=      5-min Rain = 0
KMCS 112205Z 16012G18KT 34/11 A3001 RMK A01 T03350109  RH  026%=      5-min Rain = 0
KMCS 112210Z 17015G21KT 34/11 A3001 RMK A01 T03390108  RH  025%=      5-min Rain = 0
KMCS 112215Z 17013G20KT 34/11 A3001 RMK A01 T03400106  RH  025%=      5-min Rain = 0
KMCS 112220Z 18014G20KT 34/11 A3001 RMK A01 T03390105  RH  025%=      5-min Rain = 0
KMCS 112225Z 16013G21KT 34/11 A3001 RMK A01 T03390106  RH  025%=      5-min Rain = 0
KMCS 112230Z 17013G19KT 34/11 A3001 RMK A01 T03380106  RH  025%=      5-min Rain = 0
KMCS 112235Z 15013G19KT 34/11 A30 RMK A01 T03350106  RH  025%=      5-min Rain = 0
KMCS 112240Z 15012G18KT 34/11 A3001 RMK A01 T03370107  RH  025%=      5-min Rain = 0
KMCS 112245Z 16015G21KT 34/10 A30 RMK A01 T03370103  RH  025%=      5-min Rain = 0
KMCS 112250Z 16014G19KT 34/10 A3001 RMK A01 T03370102  RH  025%=      5-min Rain = 0
KMCS 112255Z 17011G17KT 34/11 A3001 RMK A01 T03380105  RH  025%=      5-min Rain = 0
KMCS 112300Z 16011KT 34/11 A3001 RMK A01 T03380106  RH  025%=      5-min Rain = 0
KMCS 112305Z 18012G17KT 34/11 A3001 RMK A01 T03390107  RH  025%=      5-min Rain = 0
KMCS 112310Z 16013G20KT 34/11 A3001 RMK A01 T03360108  RH  026%=      5-min Rain = 0
KMCS 112315Z 17013G19KT 34/11 A3001 RMK A01 T03350107  RH  026%=      5-min Rain = 0
KMCS 112320Z 16013G20KT 34/11 A3001 RMK A01 T03360105  RH  025%=      5-min Rain = 0
KMCS 112325Z 16012G18KT 33/11 A30 RMK A01 T03330106  RH  026%=      5-min Rain = 0
KMCS 112330Z 16014KT 33/11 A30 RMK A01 T03340107  RH  026%=      5-min Rain = 0
KMCS 112335Z 17013KT 33/11 A30 RMK A01 T03330108  RH  026%=      5-min Rain = 0
KMCS 112340Z 17011KT 33/11 A30 RMK A01 T03340109  RH  026%=      5-min Rain = 0
KMCS 112345Z 17012G17KT 33/11 A30 RMK A01 T03340110  RH  026%=      5-min Rain = 0
KMCS 112350Z 16012KT 33/11 A30 RMK A01 T03330110  RH  026%=      5-min Rain = 0
KMCS 112355Z 17013KT 33/11 A30 RMK A01 T03320109  RH  026%=      5-min Rain = 0
KMCS 120000Z 17011G18KT 33/11 A3001 RMK A01 T03320110  RH  027%=      5-min Rain = 0
KMCS 120005Z 16011G16KT 33/11 A3001 RMK A01 T03320111  RH  027%=      5-min Rain = 0
KMCS 120010Z 16011G16KT 33/11 A30 RMK A01 T03300112  RH  027%=      5-min Rain = 0
KMCS 120015Z 17011G16KT 33/11 A3001 RMK A01 T03300113  RH  028%=      5-min Rain = 0
KMCS 120020Z 16012G18KT 33/11 A3001 RMK A01 T03290112  RH  027%=      5-min Rain = 0
KMCS 120025Z 16012G18KT 33/11 A3001 RMK A01 T03270111  RH  028%=      5-min Rain = 0
KMCS 120030Z 16011KT 33/11 A3001 RMK A01 T03270114  RH  028%=      5-min Rain = 0
KMCS 120035Z 16010G16KT 33/12 A3001 RMK A01 T03270115  RH  028%=      5-min Rain = 0
KMCS 120040Z 16010KT 33/11 A3001 RMK A01 T03250114  RH  028%=      5-min Rain = 0
KMCS 120045Z 16010KT 32/11 A3001 RMK A01 T03240113  RH  028%=      5-min Rain = 0
KMCS 120050Z 16010G15KT 32/11 A3001 RMK A01 T03230114  RH  029%=      5-min Rain = 0
KMCS 120055Z 15010G15KT 32/12 A3002 RMK A01 T03210116  RH  030%=      5-min Rain = 0
KMCS 120100Z 15007KT 32/12 A3002 RMK A01 T03200119  RH  030%=      5-min Rain = 0
KMCS 120105Z 14009G14KT 32/12 A3002 RMK A01 T03180119  RH  031%=      5-min Rain = 0
KMCS 120110Z 14009KT 32/12 A3002 RMK A01 T03150117  RH  031%=      5-min Rain = 0
KMCS 120115Z 14007KT 31/12 A3002 RMK A01 T03120119  RH  032%=      5-min Rain = 0
KMCS 120120Z 14007KT 31/12 A3002 RMK A01 T03100119  RH  032%=      5-min Rain = 0
KMCS 120125Z 13008KT 31/12 A3002 RMK A01 T03080119  RH  033%=      5-min Rain = 0
KMCS 120130Z 13008KT 31/12 A3002 RMK A01 T03060119  RH  033%=      5-min Rain = 0
KMCS 120135Z 13007G12KT 30/12 A3002 RMK A01 T03030120  RH  034%=      5-min Rain = 0
KMCS 120140Z 13008KT 30/12 A3002 RMK A01 T03020120  RH  034%=      5-min Rain = 0
KMCS 120145Z 14008KT 30/12 A3003 RMK A01 T03000121  RH  035%=      5-min Rain = 0
KMCS 120150Z 14009KT 30/12 A3003 RMK A01 T02990121  RH  035%=      5-min Rain = 0
KMCS 120155Z 14008KT 30/12 A3003 RMK A01 T02980121  RH  035%=      5-min Rain = 0
KMCS 120200Z 14007KT 30/12 A3003 RMK A01 T02960122  RH  036%=      5-min Rain = 0
KMCS 120205Z 14007KT 29/13 A3003 RMK A01 T02930125  RH  037%=      5-min Rain = 0
KMCS 120210Z 14007KT 29/13 A3003 RMK A01 T02920126  RH  037%=      5-min Rain = 0
KMCS 120215Z 14006KT 29/13 A3003 RMK A01 T02890127  RH  038%=      5-min Rain = 0
KMCS 120220Z 15007KT 29/13 A3003 RMK A01 T02880128  RH  039%=      5-min Rain = 0
KMCS 120225Z 15007KT 29/13 A3003 RMK A01 T02880128  RH  039%=      5-min Rain = 0
KMCS 120230Z 15006KT 29/13 A3004 RMK A01 T02860129  RH  039%=      5-min Rain = 0
KMCS 120235Z 15006KT 29/13 A3004 RMK A01 T02860129  RH  040%=      5-min Rain = 0
KMCS 120240Z 15006KT 29/13 A3004 RMK A01 T02860130  RH  040%=      5-min Rain = 0
KMCS 120245Z 15006KT 29/13 A3004 RMK A01 T02850130  RH  040%=      5-min Rain = 0
KMCS 120250Z 14006KT 28/13 A3005 RMK A01 T02840131  RH  040%=      5-min Rain = 0
KMCS 120255Z 15006KT 28/13 A3005 RMK A01 T02840131  RH  041%=      5-min Rain = 0
KMCS 120300Z 15006KT 28/13 A3005 RMK A01 T02830131  RH  041%=      5-min Rain = 0
KMCS 120305Z 15006KT 28/13 A3005 RMK A01 T02830131  RH  041%=      5-min Rain = 0
KMCS 120310Z 15006KT 28/13 A3005 RMK A01 T02820131  RH  041%=      5-min Rain = 0
KMCS 120315Z 15006KT 28/13 A3006 RMK A01 T02820131  RH  041%=      5-min Rain = 0
KMCS 120320Z 15005KT 28/13 A3006 RMK A01 T02800132  RH  042%=      5-min Rain = 0
KMCS 120325Z 14005KT 28/13 A3006 RMK A01 T02780132  RH  042%=      5-min Rain = 0
KMCS 120330Z 14005KT 28/13 A3007 RMK A01 T02760132  RH  043%=      5-min Rain = 0
KMCS 120335Z 13005KT 28/13 A3007 RMK A01 T02750132  RH  043%=      5-min Rain = 0
KMCS 120340Z 14005KT 27/13 A3007 RMK A01 T02730133  RH  044%=      5-min Rain = 0
KMCS 120345Z 14006KT 27/13 A3007 RMK A01 T02720132  RH  044%=      5-min Rain = 0
KMCS 120350Z 14006KT 27/13 A3007 RMK A01 T02720131  RH  044%=      5-min Rain = 0
KMCS 120355Z 13006KT 27/13 A3007 RMK A01 T02720131  RH  044%=      5-min Rain = 0
KMCS 120400Z 13006KT 27/13 A3007 RMK A01 T02710132  RH  044%=      5-min Rain = 0
KMCS 120405Z 13006KT 27/13 A3007 RMK A01 T02700133  RH  045%=      5-min Rain = 0
KMCS 120410Z 12006KT 27/13 A3007 RMK A01 T02690134  RH  045%=      5-min Rain = 0
KMCS 120415Z 11005KT 27/14 A3007 RMK A01 T02660136  RH  046%=      5-min Rain = 0
KMCS 120420Z 12005KT 26/14 A3007 RMK A01 T02640136  RH  047%=      5-min Rain = 0
KMCS 120425Z 12006KT 26/14 A3007 RMK A01 T02640136  RH  047%=      5-min Rain = 0
KMCS 120430Z 12006KT 27/13 A3007 RMK A01 T02660134  RH  046%=      5-min Rain = 0
KMCS 120435Z 12006KT 27/13 A3007 RMK A01 T02680133  RH  045%=      5-min Rain = 0
KMCS 120440Z 11006KT 26/13 A3007 RMK A01 T02640134  RH  047%=      5-min Rain = 0
KMCS 120445Z 11007KT 26/13 A3007 RMK A01 T02620134  RH  047%=      5-min Rain = 0
KMCS 120450Z 11007KT 26/13 A3007 RMK A01 T02610134  RH  047%=      5-min Rain = 0
KMCS 120455Z 11007KT 26/13 A3007 RMK A01 T02600134  RH  048%=      5-min Rain = 0
KMCS 120500Z 11007KT 26/14 A3008 RMK A01 T02580135  RH  048%=      5-min Rain = 0

Page generated in 0.022 seconds.